^^
Datos históricos de la estación: Murcia-Puente Tocinos
Diario Informe para Agosto 30, 2019 Unidades:  Ingés    Métrico   Ambas
Diario Semanal Mensual Anual
  Máxima: Mínima: Promedio:
Temperatura: 79.9 °F 63 °F 70.5 °F
Punto de rocio: 59.5 °F 54.1 °F 56.3 °F
Humedad: 75% 42.3% 62%
Velocidad viento: 10.7mph 0mph 4.8mph
Racha viento: 21.3mph - -
Viento- - SSO
Presión: 30.1 in 30.1 in -
Precipitación: 0 in    
 
 
Tabla de datos para Agosto 30, 2019
Hora Temperatura Punto de rocio Presión Viento Velocidad viento Racha viento Humedad Intensidad lluvia(por hora) Nubes
00:04 67.6 °F 56.7 °F 30.1 in SSO 8 mph 13 mph 68% 0 in
00:09 67.6 °F 56.7 °F 30.1 in SSO 8.1 mph 12.7 mph 68% 0 in
00:14 67.8 °F 56.7 °F 30.1 in SSO 7.7 mph 14 mph 67.4% 0 in
00:19 67.8 °F 56.5 °F 30.1 in SSO 7.6 mph 12 mph 67% 0 in
00:24 68.2 °F 56.7 °F 30.1 in SSO 8 mph 15 mph 66.7% 0 in
00:29 68.2 °F 56.5 °F 30.1 in SSO 8.1 mph 15 mph 66% 0 in
00:34 68.2 °F 56.5 °F 30.1 in SSO 8.4 mph 13 mph 66% 0 in
00:39 68.2 °F 56.5 °F 30.1 in SSO 8.5 mph 13 mph 66% 0 in
00:44 68 °F 56.1 °F 30.1 in SSO 7.6 mph 13 mph 66% 0 in
00:49 67.8 °F 56.5 °F 30.1 in SSO 7.4 mph 12 mph 66.9% 0 in
00:54 67.6 °F 56.3 °F 30.1 in SSO 6.5 mph 10 mph 67% 0 in
00:59 67.5 °F 56.3 °F 30.1 in SSO 6.2 mph 10 mph 67.6% 0 in
01:04 67.3 °F 56.5 °F 30.1 in SSO 6 mph 10.4 mph 68% 0 in
01:09 67.3 °F 56.3 °F 30.1 in SSO 5.9 mph 9 mph 68% 0 in
01:14 67.1 °F 56.1 °F 30.1 in SSO 5.5 mph 9.2 mph 68% 0 in
01:19 67.1 °F 56.1 °F 30.1 in Sur 5.4 mph 9 mph 68% 0 in
01:24 67.1 °F 56.1 °F 30.1 in SSO 5.3 mph 8.1 mph 68% 0 in
01:29 67.3 °F 56.3 °F 30.1 in SSO 5.2 mph 9.2 mph 68% 0 in
01:34 67.3 °F 56.5 °F 30.1 in SSO 5.3 mph 9 mph 68% 0 in
01:39 67.1 °F 56.3 °F 30.1 in Sur 5.4 mph 8.5 mph 68% 0 in
01:44 66.9 °F 56.1 °F 30.1 in SSO 5.4 mph 10 mph 68% 0 in
01:49 66.9 °F 55.9 °F 30.1 in SSO 5.4 mph 10.4 mph 68% 0 in
01:54 66.9 °F 55.9 °F 30.1 in SSO 5.8 mph 10 mph 68% 0 in
01:59 66.9 °F 55.9 °F 30.1 in SSO 5.9 mph 9.2 mph 68% 0 in
02:04 66.7 °F 56.1 °F 30.1 in SSO 5.3 mph 9 mph 68.9% 0 in
02:09 66.7 °F 56.1 °F 30.1 in SSO 5.2 mph 9.7 mph 69% 0 in
02:14 66.6 °F 56.1 °F 30.1 in SSO 5.2 mph 10.4 mph 69% 0 in
02:19 66.6 °F 56.1 °F 30.1 in SSO 5.2 mph 10.4 mph 69% 0 in
02:24 66.6 °F 56.1 °F 30.1 in SSO 6 mph 10 mph 69% 0 in
02:29 66.6 °F 56.1 °F 30.1 in SSO 6.2 mph 10.4 mph 69% 0 in
02:34 66.4 °F 55.9 °F 30.1 in SSO 6.3 mph 10.4 mph 69% 0 in
02:39 66.4 °F 55.9 °F 30.1 in SSO 6.4 mph 10.4 mph 69% 0 in
02:44 66.6 °F 56.1 °F 30.1 in SSO 6 mph 11.4 mph 69% 0 in
02:49 66.6 °F 56.1 °F 30.1 in SSO 5.9 mph 12 mph 69% 0 in
02:54 66.6 °F 56.1 °F 30.1 in SSO 5.9 mph 10.4 mph 69% 0 in
02:59 66.6 °F 56.1 °F 30.1 in SSO 5.9 mph 10 mph 69% 0 in
03:04 66.6 °F 56.1 °F 30.1 in SSO 5.9 mph 10.4 mph 69% 0 in
03:09 66.4 °F 55.9 °F 30.1 in SSO 5.9 mph 10 mph 69% 0 in
03:14 66.4 °F 55.9 °F 30.1 in SSO 6.2 mph 9.2 mph 69% 0 in
03:19 66.4 °F 55.9 °F 30.1 in SSO 6.2 mph 9 mph 69% 0 in
03:24 66.2 °F 55.8 °F 30.1 in Sur 6 mph 9 mph 69% 0 in
03:29 65.8 °F 55.9 °F 30.1 in Sur 5.9 mph 8.7 mph 69.9% 0 in
03:34 65.7 °F 55.8 °F 30.1 in Sur 5.9 mph 9.2 mph 70.4% 0 in
03:39 65.5 °F 55.8 °F 30.1 in Sur 5.9 mph 9.2 mph 71% 0 in
03:44 65.1 °F 55.8 °F 30.1 in Sur 5.5 mph 9.2 mph 71.4% 0 in
03:49 65.1 °F 55.9 °F 30.1 in SSO 5.4 mph 8.1 mph 72% 0 in
03:54 65.1 °F 55.9 °F 30.1 in SSO 5.3 mph 8.1 mph 72% 0 in
03:59 65.1 °F 55.9 °F 30.1 in SSO 5.2 mph 8.1 mph 72% 0 in
04:04 65.1 °F 55.9 °F 30.1 in SSO 4.8 mph 8.1 mph 72% 0 in
04:09 65.1 °F 55.9 °F 30.1 in SSO 4.7 mph 8 mph 72% 0 in
04:14 65.1 °F 55.9 °F 30.1 in SSO 4.4 mph 7 mph 72% 0 in
04:19 64.9 °F 55.8 °F 30.1 in SO 4.3 mph 6 mph 72% 0 in
04:24 65.1 °F 55.8 °F 30.1 in SSO 3.8 mph 6 mph 71.7% 0 in
04:29 65.1 °F 55.6 °F 30.1 in SO 3.6 mph 7.4 mph 71% 0 in
04:34 65.1 °F 55.4 °F 30.1 in SO 3.6 mph 7 mph 71% 0 in
04:39 64.9 °F 55.4 °F 30.1 in SSO 3.6 mph 7.4 mph 71% 0 in
04:44 64.9 °F 55.4 °F 30.1 in SO 4.4 mph 7 mph 71.1% 0 in
04:49 64.9 °F 55.6 °F 30.1 in SO 4.7 mph 6 mph 71.8% 0 in
04:54 64.8 °F 55.6 °F 30.1 in SO 3.9 mph 5.4 mph 72% 0 in
04:59 64.8 °F 55.6 °F 30.1 in SO 3.6 mph 6 mph 72% 0 in
05:04 64.8 °F 55.4 °F 30.1 in SO 3 mph 5 mph 72% 0 in
05:09 64.6 °F 55.2 °F 30.1 in SO 2.9 mph 3 mph 72% 0 in
05:14 64.2 °F 55.4 °F 30.1 in SO 0.7 mph   73% 0 in
05:19 64 °F 55.2 °F 30.1 in Calm     73% 0 in
05:24 63.9 °F 55.2 °F 30.1 in Calm     73.3% 0 in
05:29 63.7 °F 55.2 °F 30.1 in Calm     74.1% 0 in
05:34 63.3 °F 55.4 °F 30.1 in Calm     75% 0 in
05:39 63.1 °F 55.2 °F 30.1 in Calm     75% 0 in
05:44 63.1 °F 55 °F 30.1 in Calm     75% 0 in
05:49 63.1 °F 55 °F 30.1 in Calm     75% 0 in
05:54 63.1 °F 55 °F 30.1 in Calm     75% 0 in
05:59 63.1 °F 55 °F 30.1 in Calm     75% 0 in
06:04 63.1 °F 55 °F 30.1 in Calm     75% 0 in
06:09 63.1 °F 55 °F 30.1 in Calm     75% 0 in
06:14 63 °F 54.9 °F 30.1 in Calm     75% 0 in
06:19 63 °F 54.9 °F 30.1 in Calm     75% 0 in
06:24 63 °F 54.9 °F 30.1 in Calm   5.8 mph 74.9% 0 in
06:29 63.1 °F 54.7 °F 30.1 in Calm   6 mph 74% 0 in
06:34 63.3 °F 54.7 °F 30.1 in SO 2.3 mph 6.2 mph 73.5% 0 in
06:39 63.7 °F 54.9 °F 30.1 in SO 3.1 mph 6 mph 73% 0 in
06:44 63.9 °F 54.7 °F 30.1 in SO 3.8 mph 5 mph 72.2% 0 in
06:49 64 °F 54.7 °F 30.1 in SSO 4 mph 6.9 mph 71.8% 0 in
06:54 64.2 °F 54.5 °F 30.1 in SSO 4 mph 7.4 mph 71% 0 in
06:59 64.2 °F 54.7 °F 30.1 in SSO 4 mph 7 mph 71% 0 in
07:04 64.2 °F 54.7 °F 30.1 in SSO 4 mph 6.9 mph 71% 0 in
07:09 64.2 °F 54.5 °F 30.1 in Sur 4 mph 7 mph 71% 0 in
07:14 64 °F 54.3 °F 30.1 in Sur 4.2 mph 6.9 mph 71% 0 in
07:19 63.9 °F 54.5 °F 30.1 in Sur 4.3 mph 7 mph 71.7% 0 in
07:24 63.7 °F 54.5 °F 30.1 in SSO 4.3 mph 8.1 mph 72% 0 in
07:29 63.7 °F 54.5 °F 30.1 in SSO 4.3 mph 8 mph 72% 0 in
07:34 63.9 °F 54.7 °F 30.1 in SSO 4.6 mph 8.1 mph 72% 0 in
07:39 63.9 °F 54.7 °F 30.1 in SO 4.7 mph 7 mph 71.8% 0 in
07:44 63.9 °F 54.3 °F 30.1 in SO 4.2 mph 7 mph 71.1% 0 in
07:49 63.9 °F 54.7 °F 30.1 in SO 4 mph 6 mph 71.8% 0 in
07:54 63.9 °F 54.7 °F 30.1 in SO 3.4 mph 5.2 mph 72% 0 in
07:59 63.9 °F 54.7 °F 30.1 in SO 3.1 mph 5.8 mph 72% 0 in
08:04 63.9 °F 54.5 °F 30.1 in SO 3.5 mph 6.9 mph 71.6% 0 in
08:09 64 °F 54.3 °F 30.1 in SO 3.6 mph 7.4 mph 71% 0 in
08:14 64 °F 54.3 °F 30.1 in SO 4.1 mph 8.5 mph 71% 0 in
08:19 64 °F 54.3 °F 30.1 in SO 4.3 mph 9 mph 71% 0 in
08:24 64.2 °F 54.5 °F 30.1 in SO 4.3 mph 7 mph 71% 0 in
08:29 64.2 °F 54.3 °F 30.1 in SSO 4.3 mph 7 mph 70.6% 0 in
08:34 64.2 °F 54.1 °F 30.1 in SSO 3.8 mph 6.2 mph 70% 0 in
08:39 64.2 °F 54.3 °F 30.1 in SSO 3.6 mph 6.9 mph 70% 0 in
08:44 64.4 °F 54.3 °F 30.1 in SSO 4.1 mph 7 mph 70% 0 in
08:49 64.4 °F 54.5 °F 30.1 in SO 4.3 mph 7 mph 70% 0 in
08:54 64.6 °F 54.7 °F 30.1 in SSO 4.1 mph 6.2 mph 70% 0 in
08:59 64.9 °F 54.5 °F 30.1 in SSO 4 mph 7.4 mph 69.4% 0 in
09:04 65.1 °F 54.5 °F 30.1 in SSO 4 mph 8.1 mph 68.7% 0 in
09:09 65.3 °F 54.7 °F 30.1 in SSO 4 mph 8 mph 68.7% 0 in
09:14 65.7 °F 54.9 °F 30.1 in SSO 4.2 mph 6 mph 68.1% 0 in
09:19 66 °F 54.9 °F 30.1 in SSO 4.3 mph 6.9 mph 67.4% 0 in
09:24 66.4 °F 55 °F 30.1 in SSO 4.3 mph 7 mph 67% 0 in
09:29 66.7 °F 55 °F 30.1 in SSO 4.3 mph 8.1 mph 66.3% 0 in
09:34 66.9 °F 55.2 °F 30.1 in SSO 4.3 mph 8 mph 66% 0 in
09:39 67.3 °F 55.2 °F 30.1 in SSO 4.3 mph 7 mph 65.6% 0 in
09:44 67.3 °F 55.4 °F 30.1 in Sur 4.1 mph 6.2 mph 65.7% 0 in
09:49 67.1 °F 55.4 °F 30.1 in SSO 4 mph 6 mph 66% 0 in
09:54 67.5 °F 55.6 °F 30.1 in SSO 3.4 mph 6.2 mph 66% 0 in
09:59 67.8 °F 55.8 °F 30.1 in SSO 3.1 mph 6.2 mph 65.3% 0 in
10:04 68.2 °F 55.9 °F 30.1 in SSO 3.5 mph 6.9 mph 65% 0 in
10:09 68.5 °F 55.9 °F 30.1 in SO 3.6 mph 7 mph 64.2% 0 in
10:14 68.7 °F 56.1 °F 30.1 in SO 3.9 mph 7 mph 64% 0 in
10:19 69.3 °F 56.1 °F 30.1 in SSO 4 mph 9.2 mph 63.1% 0 in
10:24 69.4 °F 56.1 °F 30.1 in SSO 4.2 mph 9 mph 63% 0 in
10:29 69.8 °F 56.3 °F 30.1 in SSO 4.3 mph 6.9 mph 62.3% 0 in
10:34 70.2 °F 56.3 °F 30.1 in Sur 4.1 mph 8.1 mph 61.7% 0 in
10:39 70.3 °F 56.5 °F 30.1 in Sur 4 mph 8 mph 61.4% 0 in
10:44 70.7 °F 56.5 °F 30.1 in SSO 4.5 mph 7.4 mph 60.9% 0 in
10:49 70.9 °F 56.5 °F 30.1 in Sur 4.7 mph 8.5 mph 60.2% 0 in
10:54 71.2 °F 56.7 °F 30.1 in Sur 5.2 mph 9 mph 60% 0 in
10:59 71.6 °F 56.7 °F 30.1 in SSO 5.4 mph 10.7 mph 59.1% 0 in
11:04 72.1 °F 56.1 °F 30.1 in OSO 4.8 mph 11 mph 57.2% 0 in
11:09 72.5 °F 55.9 °F 30.1 in SO 4.7 mph 12.7 mph 55.9% 0 in
11:14 72.7 °F 55.6 °F 30.1 in OSO 6.8 mph 14 mph 55% 0 in
11:19 73 °F 55.8 °F 30.1 in SO 7.4 mph 14 mph 55% 0 in
11:24 73.2 °F 55.8 °F 30.1 in OSO 7.5 mph 14 mph 54.4% 0 in
11:29 73.2 °F 55.9 °F 30.1 in OSO 7.6 mph 13 mph 54.8% 0 in
11:34 73.6 °F 56.1 °F 30.1 in OSO 6.7 mph 12.7 mph 54.6% 0 in
11:39 73.8 °F 56.1 °F 30.1 in OSO 6.4 mph 13 mph 54% 0 in
11:44 73.9 °F 56.1 °F 30.1 in OSO 7.1 mph 13 mph 54% 0 in
11:49 74.3 °F 56.1 °F 30.1 in OSO 7.4 mph 13 mph 53.1% 0 in
11:54 74.7 °F 55.6 °F 30.1 in Oeste 6.6 mph 17.3 mph 51.6% 0 in
11:59 74.7 °F 55.4 °F 30.1 in Oeste 6.4 mph 17.3 mph 51% 0 in
12:04 74.8 °F 55.6 °F 30.1 in Oeste 9 mph 17 mph 51% 0 in
12:09 75 °F 55.8 °F 30.1 in Oeste 9.7 mph 16.1 mph 51% 0 in
12:14 75.4 °F 55.4 °F 30.1 in OSO 8.4 mph 19.2 mph 50% 0 in
12:19 75.4 °F 55 °F 30.1 in OSO 8.1 mph 20 mph 49.3% 0 in
12:24 75.6 °F 55.2 °F 30.1 in OSO 9.3 mph 21.3 mph 49.5% 0 in
12:29 75.6 °F 55.2 °F 30.1 in OSO 9.7 mph 21 mph 49.5% 0 in
12:34 75.6 °F 55.6 °F 30.1 in OSO 10.4 mph 20 mph 50% 0 in
12:39 75.7 °F 55.4 °F 30.1 in OSO 10.7 mph 17.3 mph 49.5% 0 in
12:44 75.7 °F 55.4 °F 30.1 in OSO 10.1 mph 17 mph 49.3% 0 in
12:49 75.9 °F 55.4 °F 30.1 in OSO 10 mph 16.1 mph 49.1% 0 in
12:54 75.9 °F 55.4 °F 30.1 in OSO 9 mph 16.3 mph 49% 0 in
12:59 75.9 °F 55.6 °F 30.1 in OSO 8.7 mph 16.3 mph 49.2% 0 in
13:04 76.3 °F 55.8 °F 30.1 in OSO 8.7 mph 16 mph 49.1% 0 in
13:09 76.3 °F 55.8 °F 30.1 in OSO 8.7 mph 15 mph 49% 0 in
13:14 76.5 °F 55.4 °F 30.1 in Oeste 8.6 mph 18.4 mph 48.1% 0 in
13:19 76.6 °F 55.4 °F 30.1 in OSO 8.5 mph 18 mph 47.7% 0 in
13:24 76.8 °F 55.2 °F 30.1 in OSO 8.5 mph 17 mph 47.3% 0 in
13:29 77 °F 55.2 °F 30.1 in OSO 8.5 mph 16.1 mph 47% 0 in
13:34 76.8 °F 55.4 °F 30.1 in SO 8.6 mph 16 mph 47.5% 0 in
13:39 77 °F 55.4 °F 30.1 in OSO 8.7 mph 13 mph 47.1% 0 in
13:44 77.4 °F 55.2 °F 30.1 in SO 7.3 mph 17 mph 46.4% 0 in
13:49 77.5 °F 54.7 °F 30.1 in OSO 6.9 mph 17.3 mph 45.3% 0 in
13:54 77.5 °F 54.9 °F 30.1 in SO 8.6 mph 16 mph 45.7% 0 in
13:59 77.9 °F 54.9 °F 30.1 in OSO 9.2 mph 13.8 mph 45% 0 in
14:04 78.3 °F 54.9 °F 30.1 in Oeste 7.8 mph 14 mph 44.8% 0 in
14:09 78.3 °F 54.7 °F 30.1 in OSO 7.4 mph 11 mph 44% 0 in
14:14 78.4 °F 54.7 °F 30.1 in Oeste 5.3 mph 11 mph 44% 0 in
14:19 78.4 °F 55.2 °F 30.1 in ONO 4.7 mph 11 mph 45% 0 in
14:24 78.4 °F 55.4 °F 30.1 in Oeste 5.1 mph 10 mph 45% 0 in
14:29 78.6 °F 54.9 °F 30.1 in Oeste 5.2 mph 9.2 mph 44.1% 0 in
14:34 78.6 °F 54.9 °F 30.1 in OSO 4.5 mph 11.8 mph 43.9% 0 in
14:39 78.4 °F 55.4 °F 30.1 in OSO 4.3 mph 12 mph 44.9% 0 in
14:44 78.6 °F 55.4 °F 30.1 in OSO 5.7 mph 12 mph 45% 0 in
14:49 78.6 °F 55.6 °F 30.1 in SO 6.2 mph 12 mph 45% 0 in
14:54 78.6 °F 55.6 °F 30.1 in SO 6 mph 12 mph 45% 0 in
14:59 78.8 °F 55.4 °F 30.1 in ONO 5.9 mph 9.7 mph 44.8% 0 in
15:04 79 °F 55.2 °F 30.1 in Oeste 5.3 mph 11.2 mph 44% 0 in
15:09 79.2 °F 55.2 °F 30.1 in Oeste 5.2 mph 12 mph 43.8% 0 in
15:14 79.3 °F 55 °F 30.1 in OSO 5.3 mph 12 mph 43.1% 0 in
15:19 79.3 °F 54.5 °F 30.1 in Oeste 5.4 mph 13.8 mph 42.3% 0 in
15:24 79.3 °F 54.7 °F 30.1 in Oeste 6.5 mph 15 mph 42.7% 0 in
15:29 79.2 °F 54.5 °F 30.1 in OSO 6.9 mph 15 mph 42.7% 0 in
15:34 79.3 °F 55 °F 30.1 in Oeste 6.9 mph 10.7 mph 42.9% 0 in
15:39 79.7 °F 55.2 °F 30.1 in OSO 6.9 mph 11.5 mph 43% 0 in
15:44 79.9 °F 55.2 °F 30.1 in OSO 5.7 mph 13 mph 43% 0 in
15:49 79.7 °F 55.2 °F 30.1 in Oeste 5.4 mph 13 mph 43% 0 in
15:54 79.7 °F 55.6 °F 30.1 in Oeste 5.4 mph 10.7 mph 43.7% 0 in
15:59 79.5 °F 55.8 °F 30.1 in Oeste 5.4 mph 11 mph 43.9% 0 in
16:04 79.3 °F 55.9 °F 30.1 in ONO 5.4 mph 10 mph 44.4% 0 in
16:09 79.3 °F 55.8 °F 30.1 in Oeste 5.4 mph 10.4 mph 44.5% 0 in
16:14 79.2 °F 55.9 °F 30.1 in ONO 5.8 mph 10 mph 44.9% 0 in
16:19 79.2 °F 55.9 °F 30.1 in ONO 5.9 mph 9.2 mph 45% 0 in
16:24 79.2 °F 55.9 °F 30.1 in Oeste 5 mph 8.7 mph 45% 0 in
16:29 79.3 °F 56.1 °F 30.1 in ONO 4.7 mph 9.2 mph 45% 0 in
16:34 79.5 °F 55.9 °F 30.1 in Oeste 5.1 mph 8.1 mph 44.5% 0 in
16:39 79.7 °F 55.9 °F 30.1 in ONO 5.2 mph 8 mph 44.2% 0 in
16:44 79.7 °F 56.1 °F 30.1 in ONO 4.3 mph 7.4 mph 44.4% 0 in
16:49 79.5 °F 55.8 °F 30.1 in ONO 4 mph 7 mph 44.2% 0 in
16:54 79.5 °F 55.8 °F 30.1 in ONO 4 mph 8.1 mph 44.1% 0 in
16:59 79.5 °F 55.8 °F 30.1 in ONO 4 mph 8.1 mph 44% 0 in
17:04 79.5 °F 55.6 °F 30.1 in ONO 4.5 mph 8.1 mph 44% 0 in
17:09 79.5 °F 55.6 °F 30.1 in NO 4.7 mph 8.1 mph 44% 0 in
17:14 79.3 °F 56.1 °F 30.1 in NO 4.7 mph 7 mph 44.8% 0 in
17:19 79.3 °F 56.1 °F 30.1 in NO 4.7 mph 6 mph 45% 0 in
17:24 79.3 °F 55.6 °F 30.1 in ONO 3.9 mph 6.2 mph 44.2% 0 in
17:29 79.3 °F 55.8 °F 30.1 in ONO 3.6 mph 6 mph 44.3% 0 in
17:34 79.3 °F 55.9 °F 30.1 in ONO 3.2 mph 5 mph 44.5% 0 in
17:39 79.5 °F 55.8 °F 30.1 in ONO 3.1 mph 4.6 mph 44.3% 0 in
17:44 79.3 °F 55.8 °F 30.1 in NO 2.6 mph 5.2 mph 44.3% 0 in
17:49 79.2 °F 55.9 °F 30.1 in North 2.4 mph 5 mph 45% 0 in
17:54 78.6 °F 56.1 °F 30.1 in NNE 2.8 mph 5.2 mph 46% 0 in
17:59 78.3 °F 55.8 °F 30.1 in NE 2.9 mph 5.2 mph 46% 0 in
18:04 78.1 °F 55.8 °F 30.1 in NE 3.4 mph 5.2 mph 46.4% 0 in
18:09 77.7 °F 55.6 °F 30.1 in NNE 3.6 mph 5 mph 46.5% 0 in
18:14 77.5 °F 55.8 °F 30.1 in NNE 3 mph 5.2 mph 47% 0 in
18:19 77.4 °F 55.6 °F 30.1 in NNE 2.9 mph 5.2 mph 47% 0 in
18:24 77.2 °F 55.4 °F 30.1 in NNE 3 mph 5 mph 47% 0 in
18:29 77 °F 55.2 °F 30.1 in NE 3.1 mph 5 mph 47% 0 in
18:34 76.8 °F 55 °F 30.1 in NE 2.9 mph 5 mph 47% 0 in
18:39 76.8 °F 55.4 °F 30.1 in NE 2.9 mph 5 mph 47.8% 0 in
18:44 76.5 °F 56.5 °F 30.1 in Este 3 mph 5 mph 50% 0 in
18:49 75.9 °F 57.4 °F 30.1 in Este 3.1 mph 5.8 mph 52.8% 0 in
18:54 75 °F 57.6 °F 30.1 in ESE 3.1 mph 6 mph 54.8% 0 in
18:59 74.3 °F 57.7 °F 30.1 in ESE 3.1 mph 6 mph 56.3% 0 in
19:04 73.9 °F 57.7 °F 30.1 in ESE 3.1 mph 5 mph 57% 0 in
19:09 73.6 °F 57.9 °F 30.1 in SE 3.1 mph 5.2 mph 57.9% 0 in
19:14 73.2 °F 57.6 °F 30.1 in SSE 3.1 mph 5.2 mph 58.1% 0 in
19:19 72.9 °F 57.6 °F 30.1 in Sur 3.1 mph 6.9 mph 58.7% 0 in
19:24 72.9 °F 57.6 °F 30.1 in SSO 3.8 mph 7 mph 59% 0 in
19:29 72.9 °F 57.7 °F 30.1 in SSO 4 mph 7 mph 59% 0 in
19:34 73 °F 58.1 °F 30.1 in SO 4.2 mph 9.2 mph 59.7% 0 in
19:39 73 °F 58.5 °F 30.1 in SSO 4.3 mph 10.4 mph 60.4% 0 in
19:44 73 °F 58.8 °F 30.1 in SSO 5.2 mph 10 mph 61% 0 in
19:49 72.9 °F 59 °F 30.1 in SSO 5.4 mph 11.5 mph 61.9% 0 in
19:54 72.7 °F 59.2 °F 30.1 in SSO 4.9 mph 12 mph 62.7% 0 in
19:59 72.3 °F 59.4 °F 30.1 in SSO 4.7 mph 10 mph 63.8% 0 in
20:04 72.1 °F 59.4 °F 30.1 in SSO 5.7 mph 10.4 mph 64.3% 0 in
20:09 72 °F 59.5 °F 30.1 in SSO 5.9 mph 10.4 mph 65% 0 in
20:14 71.6 °F 59.4 °F 30.1 in SSO 6.2 mph 11.5 mph 65.7% 0 in
20:19 71.2 °F 59.4 °F 30.1 in SO 6.2 mph 12 mph 66% 0 in
20:24 71.2 °F 59.4 °F 30.1 in SO 6 mph 12.7 mph 66.1% 0 in
20:29 71.1 °F 59.5 °F 30.1 in SSO 5.9 mph 13 mph 67% 0 in
20:34 71.1 °F 59.5 °F 30.1 in SSO 5.9 mph 10 mph 67% 0 in
20:39 70.9 °F 59.4 °F 30.1 in SSO 5.9 mph 11.8 mph 67% 0 in
20:44 70.9 °F 59.4 °F 30.1 in SSO 5.5 mph 12 mph 67% 0 in
20:49 70.7 °F 59.4 °F 30.1 in SO 5.4 mph 10.7 mph 67% 0 in
20:54 70.7 °F 59.2 °F 30.1 in SO 5.4 mph 11 mph 67% 0 in
20:59 70.5 °F 59 °F 30.1 in SO 5.4 mph 11 mph 67% 0 in
21:04 70.3 °F 59.4 °F 30.1 in SO 4.8 mph 7 mph 68% 0 in
21:09 70.3 °F 59.2 °F 30.1 in SSO 4.7 mph 6 mph 68% 0 in
21:14 70.2 °F 59.2 °F 30.1 in SO 3.9 mph 6 mph 68% 0 in
21:19 70.2 °F 59.2 °F 30.1 in SSO 3.6 mph 5.9 mph 68% 0 in
21:24 70.2 °F 59 °F 30.1 in SSO 3.2 mph 6.9 mph 68% 0 in
21:29 70 °F 58.8 °F 30.1 in SSO 3.1 mph 7 mph 68% 0 in
21:34 70 °F 59 °F 30.1 in Sur 3.5 mph 6 mph 68.5% 0 in
21:39 70 °F 59.2 °F 30.1 in Sur 3.6 mph 5.9 mph 69% 0 in
21:44 69.8 °F 59.2 °F 30.1 in Sur 3.9 mph 6 mph 69% 0 in
21:49 69.6 °F 59 °F 30.1 in Sur 4 mph 6.2 mph 69% 0 in
21:54 69.4 °F 59 °F 30.1 in SSO 4 mph 6.9 mph 69.6% 0 in
21:59 69.3 °F 59.2 °F 30.1 in Sur 4 mph 7 mph 70% 0 in
22:04 69.3 °F 59 °F 30.1 in SSO 4.2 mph 6 mph 70% 0 in
22:09 69.1 °F 58.8 °F 30.1 in SSO 4.3 mph 6.2 mph 70% 0 in
22:14 69.1 °F 59 °F 30.1 in Sur 3.8 mph 6 mph 70.4% 0 in
22:19 69.1 °F 59.4 °F 30.1 in Sur 3.6 mph 5 mph 71% 0 in
22:24 69.1 °F 59.2 °F 30.1 in Sur 3.2 mph 5.8 mph 71% 0 in
22:29 68.9 °F 59 °F 30.1 in Sur 3.1 mph 6 mph 71% 0 in
22:34 68.7 °F 58.8 °F 30.1 in Sur 3.1 mph 5.8 mph 71% 0 in
22:39 68.7 °F 58.8 °F 30.1 in SSE 3.1 mph 6 mph 71% 0 in
22:44 68.5 °F 58.8 °F 30.1 in SSE 3.5 mph 6.2 mph 71% 0 in
22:49 68.5 °F 58.8 °F 30.1 in SSE 3.6 mph 6 mph 71.1% 0 in
22:54 68.5 °F 59.2 °F 30.1 in Sur 3.6 mph 6.2 mph 72% 0 in
22:59 68.4 °F 59 °F 30.1 in Sur 3.6 mph 6.2 mph 72% 0 in
23:04 68.2 °F 58.8 °F 30.1 in Sur 3.9 mph 6 mph 72% 0 in
23:09 68.2 °F 58.8 °F 30.1 in SSE 4 mph 6 mph 72.2% 0 in
23:14 68 °F 59 °F 30.1 in Sur 4 mph 6 mph 73% 0 in
23:19 68 °F 59 °F 30.1 in SSE 4 mph 5.9 mph 73% 0 in
23:24 67.8 °F 58.8 °F 30.1 in SSE 4 mph 6.9 mph 73% 0 in
23:29 67.8 °F 59 °F 30.1 in Sur 4 mph 7 mph 73.5% 0 in
23:34 67.8 °F 59.2 °F 30.1 in Sur 4.2 mph 7 mph 74% 0 in
23:39 67.8 °F 59.2 °F 30.1 in Sur 4.3 mph 7.4 mph 74% 0 in
23:44 67.8 °F 59.2 °F 30.1 in SSO 4.6 mph 7 mph 74% 0 in
23:49 67.8 °F 59.2 °F 30.1 in SSO 4.7 mph 6 mph 74% 0 in
23:54 67.8 °F 59.2 °F 30.1 in SSO 4.2 mph 6.2 mph 74% 0 in
23:59 67.8 °F 59.2 °F 30.1 in SSO 4 mph 6 mph 74% 0 in
Murcia-Puente Tocinos, España
Compliments of Weather Underground - 2.75 mb

La estación de MeteoMurcia.com, publica sus datos en los siguientes proyectos:

Weather Underground PWS IMURCIAP2 Meteoclimatic www.awekas.at

W3Counter
Web Analytics